WSSL/XSP METAR and TAF weather

Enter ICAO airport designator
Station Type Date Time Source
WSSL METAR 2022/12/08 12:00 UTC NOAA

WSSL 081200Z VRB02KT 9999 -RA FEW014 BKN160 25/24 Q1008


Station Type Date Time Source
WSSL Decoded METAR 2022/12/08 12:00 UTC NOAA

Station name not available
Dec 08, 2022 - 07:00 AM EST / 2022.12.08 1200 UTC
Wind: Variable at 2 MPH (2 KT):0
Visibility: greater than 7 mile(s):0
Sky conditions: mostly cloudy
Weather: light rain
Temperature: 77 F (25 C)
Dew Point: 75 F (24 C)
Relative Humidity: 94%
Pressure (altimeter): 29.77 in. Hg (1008 hPa)
ob: WSSL 081200Z VRB02KT 9999 -RA FEW014 BKN160 25/24 Q1008
cycle: 12

Station Type Date Time Source
WSSL TAF 2022/12/08 12:09 UTC NOAA

TAF WSSL 081100Z 0812/0918 32006KT 9999 FEW015 BKN020
TEMPO 0906/0911 2000 +TSRA FEW012CB BKN015

Example: see airport list